createdAt,value
2022-12-18T00:02:15.480Z,26.67
2022-12-18T00:04:42.810Z,24.27
2022-12-18T00:07:10.681Z,26.70
2022-12-18T00:09:39.985Z,23.77
2022-12-18T00:14:45.455Z,24.63
2022-12-18T00:17:12.096Z,24.63
2022-12-18T00:19:38.714Z,24.90
2022-12-18T00:22:06.532Z,24.30
2022-12-18T00:24:33.270Z,23.73
2022-12-18T00:26:59.814Z,23.40
2022-12-18T00:29:26.463Z,24.33
2022-12-18T00:31:53.131Z,26.53
2022-12-18T00:34:19.833Z,21.70
2022-12-18T00:36:48.865Z,22.40
2022-12-18T00:39:16.195Z,24.07
2022-12-18T00:42:01.127Z,21.23
2022-12-18T00:44:27.708Z,20.13
2022-12-18T00:46:54.605Z,22.57
2022-12-18T00:49:21.442Z,22.93
2022-12-18T00:51:48.180Z,21.87
2022-12-18T00:54:16.171Z,25.07
2022-12-18T00:56:49.278Z,24.67
2022-12-18T00:59:16.543Z,23.37
2022-12-18T01:01:43.286Z,24.13
2022-12-18T01:04:10.064Z,27.07
2022-12-18T01:06:36.657Z,25.67
2022-12-18T01:09:03.635Z,24.50
2022-12-18T01:11:31.383Z,25.97
2022-12-18T01:14:00.796Z,23.83
2022-12-18T01:16:27.492Z,26.70
2022-12-18T01:18:54.808Z,25.80
2022-12-18T01:21:22.080Z,26.57
2022-12-18T01:23:52.573Z,26.30
2022-12-18T01:26:19.792Z,21.80
2022-12-18T01:28:47.207Z,20.80
2022-12-18T01:31:16.581Z,25.07
2022-12-18T01:33:43.697Z,26.30
2022-12-18T01:36:16.847Z,26.83
2022-12-18T01:38:43.598Z,23.43
2022-12-18T01:41:10.565Z,25.93
2022-12-18T01:43:50.844Z,26.67
2022-12-18T01:46:19.416Z,28.17
2022-12-18T01:48:47.585Z,33.23
2022-12-18T01:51:16.890Z,25.07
2022-12-18T01:53:45.778Z,34.33
2022-12-18T01:56:15.986Z,33.50
2022-12-18T01:58:50.842Z,31.30
2022-12-18T02:01:17.882Z,34.53
2022-12-18T02:03:45.251Z,30.80
2022-12-18T02:06:17.337Z,32.43
2022-12-18T02:08:53.513Z,31.90
2022-12-18T02:11:30.524Z,32.43
2022-12-18T02:14:13.556Z,36.20
2022-12-18T02:16:45.419Z,35.93
2022-12-18T02:19:26.337Z,38.07
2022-12-18T02:22:07.508Z,36.33
2022-12-18T02:24:40.918Z,36.63
2022-12-18T02:27:10.486Z,32.53
2022-12-18T02:29:42.852Z,35.40
2022-12-18T02:32:13.578Z,36.13
2022-12-18T02:34:41.068Z,29.97
2022-12-18T02:37:12.986Z,32.27
2022-12-18T02:39:43.105Z,32.40
2022-12-18T02:42:12.501Z,34.90
2022-12-18T02:44:43.949Z,32.43
2022-12-18T02:47:12.452Z,31.73
2022-12-18T02:49:50.315Z,28.10
2022-12-18T02:52:25.701Z,29.83
2022-12-18T02:55:04.826Z,30.10
2022-12-18T02:57:37.697Z,32.83
2022-12-18T03:00:08.534Z,34.93
2022-12-18T03:02:41.424Z,31.90
2022-12-18T03:05:13.834Z,32.50
2022-12-18T03:07:47.161Z,34.63
2022-12-18T03:10:20.258Z,31.70
2022-12-18T03:12:52.665Z,31.17
2022-12-18T03:15:23.913Z,28.93
2022-12-18T03:17:55.752Z,28.87
2022-12-18T03:20:25.643Z,28.43
2022-12-18T03:22:56.546Z,29.20
2022-12-18T03:25:26.259Z,28.63
2022-12-18T03:27:58.629Z,29.83
2022-12-18T03:30:28.140Z,26.90
2022-12-18T03:33:03.306Z,26.80
2022-12-18T03:35:33.129Z,25.50
2022-12-18T03:37:59.782Z,26.10
2022-12-18T03:40:32.672Z,26.43
2022-12-18T03:43:04.054Z,25.50
2022-12-18T03:45:37.008Z,25.87
2022-12-18T03:48:09.207Z,29.17
2022-12-18T03:50:43.299Z,25.97
2022-12-18T03:53:20.504Z,26.10
2022-12-18T03:55:50.146Z,21.70
2022-12-18T03:58:20.147Z,26.13
2022-12-18T04:00:48.554Z,26.10
2022-12-18T04:03:17.067Z,23.23
2022-12-18T04:05:44.635Z,22.67
2022-12-18T04:08:11.489Z,23.77
2022-12-18T04:10:38.236Z,24.73
2022-12-18T04:13:04.940Z,26.33
2022-12-18T04:15:35.266Z,24.07
2022-12-18T04:18:02.352Z,24.70
2022-12-18T04:20:28.938Z,23.87
2022-12-18T04:22:55.517Z,22.27
2022-12-18T04:25:22.172Z,23.57
2022-12-18T04:27:48.738Z,17.73
2022-12-18T04:30:15.402Z,22.43
2022-12-18T04:32:43.919Z,23.20
2022-12-18T04:35:12.240Z,24.10
2022-12-18T04:37:38.876Z,24.53
2022-12-18T04:40:06.543Z,22.50
2022-12-18T04:42:33.133Z,23.77
2022-12-18T04:44:59.779Z,25.50
2022-12-18T04:47:26.374Z,23.53
2022-12-18T04:49:53.629Z,24.63
2022-12-18T04:52:20.193Z,26.83
2022-12-18T04:54:46.738Z,24.40
2022-12-18T04:57:13.342Z,23.10
2022-12-18T04:59:40.228Z,23.50
2022-12-18T05:02:07.076Z,23.70
2022-12-18T05:04:33.849Z,24.37
2022-12-18T05:07:01.031Z,23.57
2022-12-18T05:09:27.672Z,25.83
2022-12-18T05:11:54.323Z,21.37
2022-12-18T05:14:20.948Z,22.20
2022-12-18T05:16:47.524Z,23.00
2022-12-18T05:19:14.091Z,26.67
2022-12-18T05:21:40.969Z,26.57
2022-12-18T05:24:08.348Z,26.97
2022-12-18T05:26:34.926Z,25.63
2022-12-18T05:29:01.507Z,27.33
2022-12-18T05:31:28.112Z,26.60
2022-12-18T05:33:58.767Z,26.97
2022-12-18T05:36:25.413Z,24.87
2022-12-18T05:38:52.039Z,27.93
2022-12-18T05:41:19.246Z,28.33
2022-12-18T05:43:45.837Z,28.93
2022-12-18T05:46:14.245Z,30.23
2022-12-18T05:48:41.301Z,28.57
2022-12-18T05:51:10.299Z,29.83
2022-12-18T05:53:38.046Z,28.77
2022-12-18T05:56:07.114Z,30.27
2022-12-18T05:58:34.426Z,29.57
2022-12-18T06:01:08.866Z,31.30
2022-12-18T06:03:35.584Z,29.33
2022-12-18T06:06:02.284Z,28.73
2022-12-18T06:08:28.963Z,28.33
2022-12-18T06:10:55.704Z,28.47
2022-12-18T06:13:22.445Z,30.93
2022-12-18T06:15:49.712Z,30.00
2022-12-18T06:18:16.335Z,28.47
2022-12-18T06:20:43.174Z,31.73
2022-12-18T06:23:10.038Z,26.77
2022-12-18T06:25:40.143Z,28.93
2022-12-18T06:28:06.741Z,27.33
2022-12-18T06:30:33.420Z,27.40
2022-12-18T06:33:00.650Z,30.13
2022-12-18T06:35:27.201Z,28.23
2022-12-18T06:37:53.904Z,29.77
2022-12-18T06:40:20.717Z,27.77
2022-12-18T06:42:47.362Z,28.80
2022-12-18T06:45:17.145Z,27.37
2022-12-18T06:47:43.943Z,28.50
2022-12-18T06:50:11.754Z,25.57
2022-12-18T06:52:39.264Z,28.20
2022-12-18T06:55:09.771Z,29.57
2022-12-18T06:57:36.432Z,30.97
2022-12-18T07:00:05.018Z,30.07
2022-12-18T07:02:31.611Z,31.77
2022-12-18T07:04:58.280Z,31.20
2022-12-18T07:07:25.512Z,29.47
2022-12-18T07:09:52.088Z,31.57
2022-12-18T07:12:18.765Z,29.83
2022-12-18T07:14:45.420Z,29.67
2022-12-18T07:17:12.053Z,30.53
2022-12-18T07:19:38.664Z,27.77
2022-12-18T07:22:05.263Z,26.67
2022-12-18T07:24:34.256Z,29.53
2022-12-18T07:27:01.311Z,28.73
2022-12-18T07:29:27.922Z,32.07
2022-12-18T07:31:54.599Z,26.33
2022-12-18T07:34:21.225Z,29.13
2022-12-18T07:36:47.897Z,28.33
2022-12-18T07:39:14.687Z,30.73
2022-12-18T07:41:47.158Z,28.40
2022-12-18T07:44:14.219Z,28.73
2022-12-18T07:46:41.288Z,28.53
2022-12-18T07:49:08.125Z,28.60
2022-12-18T07:51:34.824Z,29.03
2022-12-18T07:54:01.582Z,30.60
2022-12-18T07:56:30.076Z,25.97
2022-12-18T07:58:58.882Z,25.13
2022-12-18T08:01:25.769Z,28.23
2022-12-18T08:03:53.599Z,28.70
2022-12-18T08:06:22.142Z,29.90
2022-12-18T08:08:52.107Z,25.70
2022-12-18T08:11:18.754Z,23.00
2022-12-18T08:13:46.253Z,23.30
2022-12-18T08:16:13.491Z,24.13
2022-12-18T08:18:40.098Z,27.67
2022-12-18T08:21:10.048Z,23.73
2022-12-18T08:23:42.072Z,25.30
2022-12-18T08:26:09.536Z,24.57
2022-12-18T08:28:36.386Z,24.47
2022-12-18T08:31:03.068Z,26.47
2022-12-18T08:33:30.500Z,25.77
2022-12-18T08:35:58.607Z,24.30
2022-12-18T08:38:25.238Z,26.47
2022-12-18T08:40:58.905Z,26.73
2022-12-18T08:43:43.729Z,27.50
2022-12-18T08:46:10.457Z,25.83
2022-12-18T08:48:37.877Z,27.37
2022-12-18T08:51:04.748Z,25.20
2022-12-18T08:53:35.497Z,25.47
2022-12-18T08:56:02.922Z,25.90
2022-12-18T08:58:29.537Z,26.40
2022-12-18T09:01:00.823Z,25.77
2022-12-18T09:03:27.496Z,25.23
2022-12-18T09:05:54.735Z,25.63
2022-12-18T09:08:21.344Z,26.47
2022-12-18T09:10:49.853Z,27.17
2022-12-18T09:13:17.266Z,26.40
2022-12-18T09:15:45.450Z,27.97
2022-12-18T09:18:13.386Z,23.43
2022-12-18T09:20:40.223Z,25.00
2022-12-18T09:23:08.041Z,25.10
2022-12-18T09:25:36.124Z,25.10
2022-12-18T09:28:03.689Z,26.93
2022-12-18T09:30:30.956Z,27.40
2022-12-18T09:32:57.968Z,26.80
2022-12-18T09:35:24.580Z,28.13
2022-12-18T09:37:51.236Z,26.83
2022-12-18T09:40:21.652Z,27.17
2022-12-18T09:42:52.827Z,28.17
2022-12-18T09:45:19.939Z,28.20
2022-12-18T09:47:49.066Z,26.63
2022-12-18T09:50:26.856Z,26.97
2022-12-18T09:52:58.416Z,26.13
2022-12-18T09:55:36.607Z,24.77
2022-12-18T09:58:07.391Z,25.07
2022-12-18T10:00:34.427Z,28.73
2022-12-18T10:03:09.548Z,28.00
2022-12-18T10:05:42.565Z,29.07
2022-12-18T10:08:15.385Z,25.93
2022-12-18T10:10:48.926Z,26.90
2022-12-18T10:13:24.116Z,29.53
2022-12-18T10:16:01.064Z,25.40
2022-12-18T10:18:40.995Z,30.20
2022-12-18T10:21:13.691Z,29.00
2022-12-18T10:23:48.676Z,25.10
2022-12-18T10:26:16.386Z,24.17
2022-12-18T10:28:44.396Z,30.43
2022-12-18T10:31:17.117Z,26.17
2022-12-18T10:33:43.942Z,29.50
2022-12-18T10:36:10.570Z,27.07
2022-12-18T10:38:37.930Z,26.60
2022-12-18T10:41:06.280Z,30.13
2022-12-18T10:43:36.368Z,29.27
2022-12-18T10:46:15.172Z,25.20
2022-12-18T10:48:50.743Z,28.53
2022-12-18T10:51:22.357Z,29.93
2022-12-18T10:53:57.544Z,30.27
2022-12-18T10:56:26.740Z,28.37
2022-12-18T10:59:00.613Z,27.63
2022-12-18T11:01:28.667Z,26.63
2022-12-18T11:04:51.303Z,25.77
2022-12-18T11:07:18.756Z,25.23
2022-12-18T11:10:03.680Z,28.37
2022-12-18T11:12:30.948Z,27.17
2022-12-18T11:14:59.930Z,27.33
2022-12-18T11:17:30.993Z,26.00
2022-12-18T11:19:58.875Z,25.20
2022-12-18T11:22:28.231Z,24.87
2022-12-18T11:27:51.601Z,23.87
2022-12-18T11:30:24.578Z,24.03
2022-12-18T11:32:54.734Z,24.73
2022-12-18T11:35:26.008Z,21.70
2022-12-18T11:37:59.816Z,22.87
2022-12-18T11:40:36.528Z,25.17
2022-12-18T11:43:13.589Z,22.30
2022-12-18T11:45:47.795Z,23.20
2022-12-18T11:48:18.700Z,24.37
2022-12-18T11:50:50.954Z,21.87
2022-12-18T11:53:18.525Z,23.47
2022-12-18T11:55:56.481Z,23.97
2022-12-18T11:58:33.934Z,22.77
2022-12-18T12:01:15.251Z,22.93
2022-12-18T12:04:20.329Z,21.50
2022-12-18T12:06:57.504Z,22.03
2022-12-18T12:09:35.110Z,19.87
2022-12-18T12:12:17.337Z,22.43
2022-12-18T12:14:52.157Z,22.97
2022-12-18T12:17:26.971Z,23.17
2022-12-18T12:20:05.337Z,25.03
2022-12-18T12:22:38.916Z,25.77
2022-12-18T12:25:21.923Z,25.27
2022-12-18T12:27:58.614Z,22.63
2022-12-18T12:30:31.791Z,23.47
2022-12-18T12:33:14.607Z,22.20
2022-12-18T12:35:48.286Z,22.33
2022-12-18T12:42:50.061Z,20.07
2022-12-18T12:45:22.366Z,23.73
2022-12-18T12:47:52.247Z,23.87
2022-12-18T12:50:21.753Z,24.03
2022-12-18T12:52:53.015Z,22.40
2022-12-18T12:55:22.639Z,24.10
2022-12-18T12:58:00.270Z,24.50
2022-12-18T13:00:31.638Z,24.00
2022-12-18T13:03:07.966Z,25.40
2022-12-18T13:05:43.151Z,25.03
2022-12-18T13:08:12.392Z,24.27
2022-12-18T13:10:40.561Z,23.00
2022-12-18T13:13:10.426Z,23.83
2022-12-18T13:15:40.408Z,23.03
2022-12-18T13:18:20.282Z,24.87
2022-12-18T13:20:55.425Z,21.33
2022-12-18T13:23:36.539Z,21.80
2022-12-18T13:26:39.677Z,23.00
2022-12-18T13:29:06.484Z,21.00
2022-12-18T13:32:19.954Z,22.57
2022-12-18T13:34:48.233Z,22.83
2022-12-18T13:37:52.681Z,20.97
2022-12-18T13:40:58.351Z,25.97
2022-12-18T13:43:40.974Z,20.97
2022-12-18T13:46:23.360Z,25.67
2022-12-18T13:48:54.801Z,24.20
2022-12-18T13:51:22.176Z,23.93
2022-12-18T13:53:52.973Z,25.47
2022-12-18T13:56:24.116Z,26.73
2022-12-18T13:59:14.563Z,24.87
2022-12-18T14:01:47.292Z,24.07
2022-12-18T14:04:21.774Z,28.87
2022-12-18T14:06:50.009Z,28.77
2022-12-18T14:09:24.160Z,26.30
2022-12-18T14:11:52.093Z,29.80
2022-12-18T14:14:20.049Z,29.43
2022-12-18T14:16:47.914Z,25.87
2022-12-18T14:19:17.830Z,20.37
2022-12-18T14:21:47.456Z,25.13
2022-12-18T14:24:16.776Z,25.70
2022-12-18T14:26:48.704Z,25.53
2022-12-18T14:29:26.028Z,26.80
2022-12-18T14:32:17.451Z,26.60
2022-12-18T14:34:46.127Z,22.47
2022-12-18T14:37:15.071Z,21.70
2022-12-18T14:39:52.340Z,19.17
2022-12-18T14:42:19.737Z,21.70
2022-12-18T14:47:33.229Z,22.00
2022-12-18T14:50:00.459Z,23.43
2022-12-18T14:52:31.840Z,21.70
2022-12-18T14:54:58.572Z,22.33
2022-12-18T14:57:29.396Z,24.53
2022-12-18T15:00:05.920Z,23.40
2022-12-18T15:02:35.801Z,22.50
2022-12-18T15:05:08.431Z,20.10
2022-12-18T15:07:42.537Z,22.13
2022-12-18T15:10:14.697Z,20.97
2022-12-18T15:12:43.647Z,24.03
2022-12-18T15:15:48.359Z,20.97
2022-12-18T15:18:17.485Z,20.47
2022-12-18T15:20:46.589Z,23.43
2022-12-18T15:23:17.138Z,21.90
2022-12-18T15:25:43.890Z,25.13
2022-12-18T15:28:20.959Z,21.57
2022-12-18T15:31:17.845Z,21.03
2022-12-18T15:33:46.401Z,21.13
2022-12-18T15:36:15.111Z,19.83
2022-12-18T15:38:42.167Z,17.77
2022-12-18T15:41:14.470Z,17.87
2022-12-18T15:43:42.343Z,19.53
2022-12-18T15:46:13.536Z,20.10
2022-12-18T15:48:41.597Z,22.67
2022-12-18T15:51:15.691Z,21.43
2022-12-18T15:53:43.004Z,19.70
2022-12-18T15:56:29.870Z,20.30
2022-12-18T15:58:57.475Z,19.73
2022-12-18T16:01:26.646Z,24.87
2022-12-18T16:03:54.165Z,22.73
2022-12-18T16:06:20.984Z,22.00
2022-12-18T16:08:48.035Z,18.13
2022-12-18T16:11:38.038Z,16.83
2022-12-18T16:14:06.957Z,21.43
2022-12-18T16:16:33.931Z,22.70
2022-12-18T16:19:00.588Z,18.33
2022-12-18T16:21:33.839Z,20.00
2022-12-18T16:24:00.874Z,18.57
2022-12-18T16:26:27.530Z,26.00
2022-12-18T16:28:54.362Z,22.07
2022-12-18T16:31:21.762Z,26.97
2022-12-18T16:33:48.441Z,24.23
2022-12-18T16:36:15.455Z,21.60
2022-12-18T16:38:42.658Z,20.97
2022-12-18T16:41:34.288Z,23.97
2022-12-18T16:44:01.660Z,22.50
2022-12-18T16:46:29.251Z,26.67
2022-12-18T16:48:58.437Z,24.23
2022-12-18T16:51:25.446Z,24.37
2022-12-18T16:53:52.768Z,26.50
2022-12-18T16:56:19.459Z,26.67
2022-12-18T16:58:51.056Z,23.37
2022-12-18T17:01:17.861Z,23.40
2022-12-18T17:03:46.067Z,24.30
2022-12-18T17:06:14.101Z,26.37
2022-12-18T17:08:40.760Z,25.83
2022-12-18T17:11:08.245Z,26.43
2022-12-18T17:13:35.083Z,24.63
2022-12-18T17:16:06.048Z,28.10
2022-12-18T17:18:34.197Z,27.23
2022-12-18T17:21:02.732Z,27.03
2022-12-18T17:23:29.846Z,28.17
2022-12-18T17:25:56.902Z,28.37
2022-12-18T17:28:25.128Z,25.87
2022-12-18T17:30:52.057Z,25.80
2022-12-18T17:33:18.946Z,26.13
2022-12-18T17:35:45.662Z,28.93
2022-12-18T17:38:16.108Z,27.43
2022-12-18T17:40:46.412Z,29.87
2022-12-18T17:43:13.348Z,28.97
2022-12-18T17:45:40.676Z,29.83
2022-12-18T17:48:09.036Z,30.20
2022-12-18T17:50:36.537Z,28.40
2022-12-18T17:53:03.519Z,30.23
2022-12-18T17:55:30.936Z,29.10
2022-12-18T17:57:57.867Z,31.07
2022-12-18T18:00:24.752Z,28.93
2022-12-18T18:02:51.763Z,30.77
2022-12-18T18:05:18.764Z,34.33
2022-12-18T18:07:45.469Z,33.53
2022-12-18T18:10:12.774Z,31.53
2022-12-18T18:12:58.215Z,36.53
2022-12-18T18:15:25.003Z,35.50
2022-12-18T18:17:51.871Z,33.97
2022-12-18T18:20:22.574Z,36.23
2022-12-18T18:22:49.597Z,35.40
2022-12-18T18:25:16.514Z,32.30
2022-12-18T18:27:43.915Z,31.13
2022-12-18T18:30:14.055Z,29.83
2022-12-18T18:32:40.755Z,33.37
2022-12-18T18:35:15.690Z,33.67
2022-12-18T18:37:55.524Z,29.57
2022-12-18T18:40:22.207Z,38.10
2022-12-18T18:42:49.553Z,34.27
2022-12-18T18:45:16.290Z,36.07
2022-12-18T18:47:43.105Z,33.70
2022-12-18T18:50:12.110Z,34.43
2022-12-18T18:52:38.842Z,32.27
2022-12-18T18:55:25.624Z,33.50
2022-12-18T18:57:53.240Z,29.53
2022-12-18T19:00:20.180Z,33.87
2022-12-18T19:02:47.427Z,34.93
2022-12-18T19:05:14.249Z,33.67
2022-12-18T19:07:41.510Z,33.83
2022-12-18T19:10:09.220Z,35.30
2022-12-18T19:12:54.074Z,32.30
2022-12-18T19:15:21.407Z,32.43
2022-12-18T19:17:48.476Z,34.77
2022-12-18T19:20:15.728Z,33.17
2022-12-18T19:22:42.409Z,34.63
2022-12-18T19:25:10.373Z,36.60
2022-12-18T19:27:39.349Z,32.70
2022-12-18T19:30:07.163Z,35.90
2022-12-18T19:32:34.789Z,33.70
2022-12-18T19:35:01.868Z,32.90
2022-12-18T19:37:28.742Z,32.40
2022-12-18T19:39:55.914Z,31.97
2022-12-18T19:42:28.060Z,32.67
2022-12-18T19:44:56.184Z,32.50
2022-12-18T19:47:22.866Z,31.33
2022-12-18T19:49:50.232Z,33.03
2022-12-18T19:52:16.921Z,30.13
2022-12-18T19:54:43.561Z,29.80
2022-12-18T19:57:11.706Z,32.87
2022-12-18T19:59:38.980Z,33.00
2022-12-18T20:02:10.890Z,32.60
2022-12-18T20:04:37.719Z,32.13
2022-12-18T20:07:05.155Z,34.87
2022-12-18T20:09:31.989Z,32.37
2022-12-18T20:12:02.678Z,32.03
2022-12-18T20:14:29.408Z,34.67
2022-12-18T20:16:57.087Z,31.20
2022-12-18T20:19:26.780Z,31.43
2022-12-18T20:21:53.712Z,33.33
2022-12-18T20:24:21.101Z,28.33
2022-12-18T20:26:48.042Z,25.93
2022-12-18T20:29:14.754Z,31.87
2022-12-18T20:31:41.543Z,26.93
2022-12-18T20:34:08.455Z,32.93
2022-12-18T20:36:37.697Z,26.67
2022-12-18T20:39:07.624Z,26.50
2022-12-18T20:41:37.988Z,32.37
2022-12-18T20:44:07.477Z,29.73
2022-12-18T20:46:51.583Z,28.03
2022-12-18T20:49:18.297Z,30.43
2022-12-18T20:51:50.172Z,29.67
2022-12-18T20:54:16.882Z,31.57
2022-12-18T20:56:44.289Z,24.50
2022-12-18T20:59:11.026Z,30.43
2022-12-18T21:01:39.104Z,29.00
2022-12-18T21:04:13.118Z,28.07
2022-12-18T21:06:39.796Z,27.47
2022-12-18T21:09:06.532Z,29.87
2022-12-18T21:11:51.741Z,24.77
2022-12-18T21:14:20.802Z,29.53
2022-12-18T21:16:48.041Z,28.33
2022-12-18T21:19:16.918Z,27.80
2022-12-18T21:21:44.031Z,29.80
2022-12-18T21:24:11.156Z,31.23
2022-12-18T21:26:44.927Z,31.90
2022-12-18T21:29:14.698Z,27.77
2022-12-18T21:31:42.530Z,30.10
2022-12-18T21:34:13.754Z,26.10
2022-12-18T21:36:40.443Z,28.27
2022-12-18T21:39:07.143Z,29.53
2022-12-18T21:41:52.147Z,28.93
2022-12-18T21:44:22.347Z,26.50
2022-12-18T21:46:56.154Z,24.30
2022-12-18T21:49:26.853Z,23.60
2022-12-18T21:51:55.355Z,27.97
2022-12-18T21:54:22.624Z,26.70
2022-12-18T21:56:52.105Z,27.23
2022-12-18T21:59:20.328Z,26.57
2022-12-18T22:01:48.048Z,26.90
2022-12-18T22:04:16.941Z,25.33
2022-12-18T22:06:44.932Z,26.73
2022-12-18T22:09:13.704Z,26.27
2022-12-18T22:11:40.803Z,26.53
2022-12-18T22:14:07.703Z,26.80
2022-12-18T22:16:34.808Z,25.47
2022-12-18T22:19:02.776Z,25.97
2022-12-18T22:21:31.934Z,26.00
2022-12-18T22:24:00.386Z,27.33
2022-12-18T22:26:30.450Z,24.30
2022-12-18T22:29:17.371Z,27.27
2022-12-18T22:31:44.509Z,25.47
2022-12-18T22:34:11.593Z,25.87
2022-12-18T22:36:41.099Z,24.07
2022-12-18T22:39:11.272Z,25.90
2022-12-18T22:41:37.984Z,25.80
2022-12-18T22:44:04.835Z,26.60
2022-12-18T22:46:36.327Z,26.70
2022-12-18T22:49:03.311Z,24.20
2022-12-18T22:51:30.449Z,18.13
2022-12-18T22:53:58.057Z,22.07
2022-12-18T22:56:24.717Z,29.27
2022-12-18T22:58:51.585Z,27.60
2022-12-18T23:01:20.663Z,25.67
2022-12-18T23:03:47.978Z,18.73
2022-12-18T23:06:15.471Z,25.37
2022-12-18T23:08:42.895Z,22.77
2022-12-18T23:11:11.167Z,23.90
2022-12-18T23:13:40.444Z,21.40
2022-12-18T23:16:09.116Z,25.23
2022-12-18T23:18:36.282Z,21.10
2022-12-18T23:21:07.083Z,23.37
2022-12-18T23:23:34.769Z,20.53
2022-12-18T23:26:03.144Z,25.43
2022-12-18T23:28:32.764Z,23.53
2022-12-18T23:31:06.483Z,22.83
2022-12-18T23:33:33.465Z,21.67
2022-12-18T23:36:00.888Z,22.93
2022-12-18T23:38:27.633Z,23.77
2022-12-18T23:40:56.339Z,23.30
2022-12-18T23:43:23.952Z,25.37
2022-12-18T23:45:55.620Z,19.77
2022-12-18T23:48:22.784Z,21.33
2022-12-18T23:50:49.484Z,20.90
2022-12-18T23:53:17.196Z,20.80
2022-12-18T23:55:44.659Z,21.10
2022-12-18T23:58:16.525Z,21.23
